Toledo, Spain

8:37 AM CEST on August 23, 2014 (GMT +0200)
FV Toledo PV | Change Station
CLOSE
Current Station
Personal Weather Station
Location: Puebal De Montalban, TOLEDO
Elevation: 1413 ft
Nearby Weather Stations

Elev 1413 ft 39.83 °N, 4.29 °W | Updated 2 minutes ago

Clear
Clear
64.6 °F
Feels Like 64.6 °F
N
2.0
Wind Variable Wind from ENE
Gusts 5.0 mph

Today
High -- | Low -- °F
--% Chance of Precip.
Yesterday
High -- | Low -- °F
Precip. -- in
7:35 AM 9:01 PM
Waning Crescent, 5% visible
Pressure 30.12 in
Visibility -9999.0 miles
Clouds
Dew Point 53 °F
Humidity 67%
Rainfall 0.00 in
Snow Depth Not available.
UV Not available.
Pollen Not available.
Air Quality Not available.
Flu Activity Not available.
METAR LEVS 230630Z VRB02KT CAVOK 18/10 Q1020

More Conditions Fewer Conditions

Pressure 30.12 in
Visibility -9999.0 miles
Clouds
Dew Point 53 °F
Humidity 67%
Rainfall 0.00 in
Snow Depth Not available.
UV Not available.
Pollen Not available.
Air Quality Not available.
Flu Activity Not available.
METAR LEVS 230630Z VRB02KT CAVOK 18/10 Q1020

More Conditions Fewer Conditions

10-Day Weather Forecast

Almanac

Astronomy

Aug. 23, 2014 Rise Set
Actual Time 7:35 AM CEST 9:01 PM CEST
Civil Twilight 7:07 AM CEST 9:29 PM CEST
Nautical Twilight 6:32 AM CEST 10:03 PM CEST
Astronomical Twilight 5:56 AM CEST 10:39 PM CEST
Moon 5:38 AM CEST 7:37 PM CEST
Length of Visible Light 14h 22m
Length of Day
13h 26m
Tomorrow will be 2m 26s shorter.
Waning Crescent, 5% of the Moon is Illuminated
Today
Waning Crescent
Aug 25
New
Sep 2
First Quarter
Sep 8
Full
Sep 15
Last Quarter

Yesterday's Extremes

Country Highs Country Lows

Community

WunderPhotos

Upload Photos

1,746,371 photos uploaded!

WunderBlogs® & News

By Dr. Jeff Masters
Director of Meteorology, Weather Underground
By Kari Strenfel
Meteorologist, Weather Underground
By Christopher C. Burt
Weather Historian, Weather Underground
August 23, 2014
August 23, 2014
August 22, 2014

Nearby

Snow Depth

Not available.

Earthquake Activity

City Distance Mag. Time & Date
No recent earthquake activity has been reported nearby.
Minimum magnitude displayed is 2.5.

Coastal Water Temperatures

Place Temperature
No Stations Reporting

Nearby Weather Stations